sensor_id;sensor_type;location;lat;lon;timestamp;pressure;altitude;pressure_sealevel;temperature;humidity
76762;BME280;65705;51.032;13.790;2023-02-15T00:01:33;101901.59;;;2.50;80.04
76762;BME280;65705;51.032;13.790;2023-02-15T00:03:59;101906.16;;;2.45;80.52
76762;BME280;65705;51.032;13.790;2023-02-15T00:06:25;101904.97;;;2.52;80.03
76762;BME280;65705;51.032;13.790;2023-02-15T00:08:51;101905.88;;;2.51;79.73
76762;BME280;65705;51.032;13.790;2023-02-15T00:11:18;101900.81;;;2.48;80.30
76762;BME280;65705;51.032;13.790;2023-02-15T00:14:25;101906.00;;;2.48;79.99
76762;BME280;65705;51.032;13.790;2023-02-15T00:16:52;101902.47;;;2.51;79.63
76762;BME280;65705;51.032;13.790;2023-02-15T00:19:19;101904.84;;;2.55;79.81
76762;BME280;65705;51.032;13.790;2023-02-15T00:21:46;101903.25;;;2.53;79.63
76762;BME280;65705;51.032;13.790;2023-02-15T00:24:14;101898.00;;;2.54;79.45
76762;BME280;65705;51.032;13.790;2023-02-15T00:26:41;101893.38;;;2.61;79.24
76762;BME280;65705;51.032;13.790;2023-02-15T00:29:08;101891.75;;;2.58;78.85
76762;BME280;65705;51.032;13.790;2023-02-15T00:31:35;101896.28;;;2.53;78.88
76762;BME280;65705;51.032;13.790;2023-02-15T00:34:07;101892.88;;;2.53;78.92
76762;BME280;65705;51.032;13.790;2023-02-15T00:36:35;101896.56;;;2.47;79.12
76762;BME280;65705;51.032;13.790;2023-02-15T00:39:02;101899.16;;;2.47;78.75
76762;BME280;65705;51.032;13.790;2023-02-15T00:41:30;101898.44;;;2.44;78.92
76762;BME280;65705;51.032;13.790;2023-02-15T00:43:57;101893.97;;;2.47;78.85
76762;BME280;65705;51.032;13.790;2023-02-15T00:46:22;101895.13;;;2.40;79.00
76762;BME280;65705;51.032;13.790;2023-02-15T00:48:49;101883.22;;;2.36;78.77
76762;BME280;65705;51.032;13.790;2023-02-15T00:51:15;101883.31;;;2.33;78.73
76762;BME280;65705;51.032;13.790;2023-02-15T00:53:42;101879.84;;;2.34;78.78
76762;BME280;65705;51.032;13.790;2023-02-15T00:56:10;101877.38;;;2.31;78.95
76762;BME280;65705;51.032;13.790;2023-02-15T00:58:36;101874.78;;;2.31;78.77
76762;BME280;65705;51.032;13.790;2023-02-15T01:01:08;101882.56;;;2.31;78.88
76762;BME280;65705;51.032;13.790;2023-02-15T01:03:35;101872.38;;;2.27;78.91
76762;BME280;65705;51.032;13.790;2023-02-15T01:06:02;101874.19;;;2.25;78.93
76762;BME280;65705;51.032;13.790;2023-02-15T01:08:28;101864.59;;;2.27;78.86
76762;BME280;65705;51.032;13.790;2023-02-15T01:10:54;101864.59;;;2.27;78.54
76762;BME280;65705;51.032;13.790;2023-02-15T01:13:20;101863.56;;;2.31;78.60
76762;BME280;65705;51.032;13.790;2023-02-15T01:15:53;101856.91;;;2.25;78.84
76762;BME280;65705;51.032;13.790;2023-02-15T01:18:19;101860.38;;;2.24;78.75
76762;BME280;65705;51.032;13.790;2023-02-15T01:20:45;101859.56;;;2.24;78.74
76762;BME280;65705;51.032;13.790;2023-02-15T01:23:10;101861.50;;;2.19;78.79
76762;BME280;65705;51.032;13.790;2023-02-15T01:25:36;101866.19;;;2.09;79.20
76762;BME280;65705;51.032;13.790;2023-02-15T01:28:02;101861.16;;;2.06;79.43
76762;BME280;65705;51.032;13.790;2023-02-15T01:30:28;101862.75;;;2.08;79.47
76762;BME280;65705;51.032;13.790;2023-02-15T01:32:54;101860.25;;;2.07;79.36
76762;BME280;65705;51.032;13.790;2023-02-15T01:35:20;101856.00;;;2.04;79.21
76762;BME280;65705;51.032;13.790;2023-02-15T01:37:45;101855.25;;;2.02;79.20
76762;BME280;65705;51.032;13.790;2023-02-15T01:40:14;101852.53;;;2.05;78.84
76762;BME280;65705;51.032;13.790;2023-02-15T01:42:40;101848.16;;;2.07;78.96
76762;BME280;65705;51.032;13.790;2023-02-15T01:45:23;101851.56;;;2.08;78.67
76762;BME280;65705;51.032;13.790;2023-02-15T01:50:40;101844.06;;;2.02;79.37
76762;BME280;65705;51.032;13.790;2023-02-15T01:53:15;101842.25;;;2.04;79.04
76762;BME280;65705;51.032;13.790;2023-02-15T01:55:46;101835.56;;;1.98;79.17
76762;BME280;65705;51.032;13.790;2023-02-15T01:58:14;101827.16;;;1.93;79.15
76762;BME280;65705;51.032;13.790;2023-02-15T02:00:40;101826.44;;;1.90;79.25
76762;BME280;65705;51.032;13.790;2023-02-15T02:03:06;101824.88;;;1.86;79.60
76762;BME280;65705;51.032;13.790;2023-02-15T02:05:32;101819.78;;;1.83;79.84
76762;BME280;65705;51.032;13.790;2023-02-15T02:07:59;101811.06;;;1.85;79.70
76762;BME280;65705;51.032;13.790;2023-02-15T02:10:26;101808.69;;;1.81;79.83
76762;BME280;65705;51.032;13.790;2023-02-15T02:12:55;101808.69;;;1.81;79.86
76762;BME280;65705;51.032;13.790;2023-02-15T02:15:25;101806.97;;;1.80;79.43
76762;BME280;65705;51.032;13.790;2023-02-15T02:18:06;101800.25;;;1.76;79.65
76762;BME280;65705;51.032;13.790;2023-02-15T02:34:33;101789.84;;;1.77;79.83
76762;BME280;65705;51.032;13.790;2023-02-15T02:37:09;101791.31;;;1.83;79.51
76762;BME280;65705;51.032;13.790;2023-02-15T02:40:00;101791.38;;;1.81;79.35
76762;BME280;65705;51.032;13.790;2023-02-15T02:42:52;101788.09;;;1.78;79.64
76762;BME280;65705;51.032;13.790;2023-02-15T02:45:32;101783.81;;;1.77;79.53
76762;BME280;65705;51.032;13.790;2023-02-15T02:48:09;101783.81;;;1.77;79.91
76762;BME280;65705;51.032;13.790;2023-02-15T02:50:39;101785.56;;;1.76;79.98
76762;BME280;65705;51.032;13.790;2023-02-15T02:53:05;101787.31;;;1.76;79.73
76762;BME280;65705;51.032;13.790;2023-02-15T03:01:03;101776.91;;;1.77;79.41
76762;BME280;65705;51.032;13.790;2023-02-15T03:03:37;101780.31;;;1.78;79.43
76762;BME280;65705;51.032;13.790;2023-02-15T03:06:12;101779.50;;;1.77;79.56
76762;BME280;65705;51.032;13.790;2023-02-15T03:08:42;101779.50;;;1.77;79.44
76762;BME280;65705;51.032;13.790;2023-02-15T03:11:11;101781.38;;;1.74;79.34
76762;BME280;65705;51.032;13.790;2023-02-15T03:13:37;101772.94;;;1.69;79.60
76762;BME280;65705;51.032;13.790;2023-02-15T03:16:05;101768.66;;;1.68;79.36
76762;BME280;65705;51.032;13.790;2023-02-15T03:18:55;101780.09;;;1.62;79.87
76762;BME280;65705;51.032;13.790;2023-02-15T03:21:50;101774.22;;;1.59;79.75
76762;BME280;65705;51.032;13.790;2023-02-15T03:24:35;101773.91;;;1.66;79.60
76762;BME280;65705;51.032;13.790;2023-02-15T03:27:07;101775.72;;;1.64;79.81
76762;BME280;65705;51.032;13.790;2023-02-15T03:29:36;101771.56;;;1.60;79.89
76762;BME280;65705;51.032;13.790;2023-02-15T03:32:05;101774.00;;;1.63;79.90
76762;BME280;65705;51.032;13.790;2023-02-15T03:34:32;101771.50;;;1.62;79.73
76762;BME280;65705;51.032;13.790;2023-02-15T03:40:23;101772.34;;;1.62;79.87
76762;BME280;65705;51.032;13.790;2023-02-15T03:43:18;101782.69;;;1.62;79.75
76762;BME280;65705;51.032;13.790;2023-02-15T03:45:49;101775.00;;;1.61;79.48
76762;BME280;65705;51.032;13.790;2023-02-15T03:48:28;101780.28;;;1.58;79.68
76762;BME280;65705;51.032;13.790;2023-02-15T03:50:58;101776.06;;;1.55;79.93
76762;BME280;65705;51.032;13.790;2023-02-15T03:53:45;101776.16;;;1.54;79.86
76762;BME280;65705;51.032;13.790;2023-02-15T03:56:12;101780.34;;;1.56;79.87
76762;BME280;65705;51.032;13.790;2023-02-15T03:58:37;101777.09;;;1.51;79.72
76762;BME280;65705;51.032;13.790;2023-02-15T04:01:33;101775.28;;;1.53;79.61
76762;BME280;65705;51.032;13.790;2023-02-15T04:04:20;101774.50;;;1.51;79.90
76762;BME280;65705;51.032;13.790;2023-02-15T04:06:47;101767.59;;;1.52;79.56
76762;BME280;65705;51.032;13.790;2023-02-15T04:09:14;101771.91;;;1.51;79.60
76762;BME280;65705;51.032;13.790;2023-02-15T04:11:58;101766.75;;;1.51;79.23
76762;BME280;65705;51.032;13.790;2023-02-15T04:14:24;101772.06;;;1.48;79.63
76762;BME280;65705;51.032;13.790;2023-02-15T04:17:09;101767.00;;;1.45;79.58
76762;BME280;65705;51.032;13.790;2023-02-15T04:19:35;101766.25;;;1.42;79.55
76762;BME280;65705;51.032;13.790;2023-02-15T04:22:19;101767.09;;;1.42;79.27
76762;BME280;65705;51.032;13.790;2023-02-15T04:25:03;101769.69;;;1.42;79.47
76762;BME280;65705;51.032;13.790;2023-02-15T04:27:41;101768.09;;;1.40;79.55
76762;BME280;65705;51.032;13.790;2023-02-15T04:30:08;101773.06;;;1.44;79.34
76762;BME280;65705;51.032;13.790;2023-02-15T04:32:34;101771.50;;;1.40;79.71
76762;BME280;65705;51.032;13.790;2023-02-15T04:35:00;101769.75;;;1.41;79.55
76762;BME280;65705;51.032;13.790;2023-02-15T04:37:26;101765.38;;;1.43;79.63
76762;BME280;65705;51.032;13.790;2023-02-15T04:39:52;101762.84;;;1.41;79.45
76762;BME280;65705;51.032;13.790;2023-02-15T04:42:17;101761.94;;;1.42;79.61
76762;BME280;65705;51.032;13.790;2023-02-15T04:44:43;101766.16;;;1.45;79.41
76762;BME280;65705;51.032;13.790;2023-02-15T04:47:09;101759.25;;;1.45;79.49
76762;BME280;65705;51.032;13.790;2023-02-15T04:49:35;101762.91;;;1.40;79.58
76762;BME280;65705;51.032;13.790;2023-02-15T04:52:00;101757.78;;;1.38;79.21
76762;BME280;65705;51.032;13.790;2023-02-15T04:54:26;101759.63;;;1.36;79.51
76762;BME280;65705;51.032;13.790;2023-02-15T04:56:52;101753.72;;;1.33;79.95
76762;BME280;65705;51.032;13.790;2023-02-15T04:59:17;101740.72;;;1.34;79.85
76762;BME280;65705;51.032;13.790;2023-02-15T05:01:43;101743.25;;;1.36;80.15
76762;BME280;65705;51.032;13.790;2023-02-15T05:04:09;101748.53;;;1.33;80.03
76762;BME280;65705;51.032;13.790;2023-02-15T05:06:35;101749.50;;;1.30;79.86
76762;BME280;65705;51.032;13.790;2023-02-15T05:09:00;101739.28;;;1.27;80.19
76762;BME280;65705;51.032;13.790;2023-02-15T05:11:26;101750.44;;;1.28;79.89
76762;BME280;65705;51.032;13.790;2023-02-15T05:13:52;101742.69;;;1.28;79.85
76762;BME280;65705;51.032;13.790;2023-02-15T05:16:18;101734.88;;;1.29;79.90
76762;BME280;65705;51.032;13.790;2023-02-15T05:18:44;101739.22;;;1.29;79.96
76762;BME280;65705;51.032;13.790;2023-02-15T05:21:10;101735.91;;;1.25;79.71
76762;BME280;65705;51.032;13.790;2023-02-15T05:23:36;101733.31;;;1.25;79.98
76762;BME280;65705;51.032;13.790;2023-02-15T05:26:01;101738.66;;;1.21;80.26
76762;BME280;65705;51.032;13.790;2023-02-15T05:28:45;101738.56;;;1.24;79.99
76762;BME280;65705;51.032;13.790;2023-02-15T05:31:17;101737.72;;;1.23;80.02
76762;BME280;65705;51.032;13.790;2023-02-15T05:33:43;101736.84;;;1.23;79.88
76762;BME280;65705;51.032;13.790;2023-02-15T05:36:10;101737.78;;;1.22;79.50
76762;BME280;65705;51.032;13.790;2023-02-15T05:38:37;101735.25;;;1.20;79.70
76762;BME280;65705;51.032;13.790;2023-02-15T05:41:06;101736.28;;;1.16;80.36
76762;BME280;65705;51.032;13.790;2023-02-15T05:43:33;101738.78;;;1.18;80.61
76762;BME280;65705;51.032;13.790;2023-02-15T05:45:59;101733.56;;;1.19;80.32
76762;BME280;65705;51.032;13.790;2023-02-15T05:48:26;101732.59;;;1.22;80.08
76762;BME280;65705;51.032;13.790;2023-02-15T05:53:23;101724.78;;;1.23;79.89
76762;BME280;65705;51.032;13.790;2023-02-15T05:55:49;101734.16;;;1.26;79.93
76762;BME280;65705;51.032;13.790;2023-02-15T05:58:15;101732.69;;;1.19;79.82
76762;BME280;65705;51.032;13.790;2023-02-15T06:00:40;101735.19;;;1.22;79.78
76762;BME280;65705;51.032;13.790;2023-02-15T06:03:06;101736.06;;;1.21;80.16
76762;BME280;65705;51.032;13.790;2023-02-15T06:05:32;101731.88;;;1.18;79.98
76762;BME280;65705;51.032;13.790;2023-02-15T06:07:58;101735.13;;;1.23;79.89
76762;BME280;65705;51.032;13.790;2023-02-15T06:10:23;101740.31;;;1.23;79.98
76762;BME280;65705;51.032;13.790;2023-02-15T06:12:49;101742.94;;;1.22;79.97
76762;BME280;65705;51.032;13.790;2023-02-15T06:15:15;101745.59;;;1.20;79.96
76762;BME280;65705;51.032;13.790;2023-02-15T06:17:41;101741.25;;;1.21;80.04
76762;BME280;65705;51.032;13.790;2023-02-15T06:20:08;101740.22;;;1.25;79.85
76762;BME280;65705;51.032;13.790;2023-02-15T06:22:34;101741.75;;;1.30;79.89
76762;BME280;65705;51.032;13.790;2023-02-15T06:25:00;101740.00;;;1.31;79.51
76762;BME280;65705;51.032;13.790;2023-02-15T06:27:25;101740.03;;;1.29;79.39
76762;BME280;65705;51.032;13.790;2023-02-15T06:29:51;101733.19;;;1.28;79.60
76762;BME280;65705;51.032;13.790;2023-02-15T06:32:17;101729.88;;;1.25;79.52
76762;BME280;65705;51.032;13.790;2023-02-15T06:34:43;101722.13;;;1.25;79.82
76762;BME280;65705;51.032;13.790;2023-02-15T06:37:08;101724.72;;;1.25;79.84
76762;BME280;65705;51.032;13.790;2023-02-15T06:39:34;101726.53;;;1.23;80.17
76762;BME280;65705;51.032;13.790;2023-02-15T06:42:00;101729.16;;;1.21;80.43
76762;BME280;65705;51.032;13.790;2023-02-15T06:44:25;101731.69;;;1.23;80.13
76762;BME280;65705;51.032;13.790;2023-02-15T06:46:51;101728.88;;;1.29;80.37
76762;BME280;65705;51.032;13.790;2023-02-15T06:49:17;101730.38;;;1.34;80.11
76762;BME280;65705;51.032;13.790;2023-02-15T06:51:43;101728.50;;;1.38;80.36
76762;BME280;65705;51.032;13.790;2023-02-15T06:54:08;101729.09;;;1.44;80.20
76762;BME280;65705;51.032;13.790;2023-02-15T06:56:34;101725.34;;;1.51;79.97
76762;BME280;65705;51.032;13.790;2023-02-15T06:59:00;101724.41;;;1.54;79.68
76762;BME280;65705;51.032;13.790;2023-02-15T07:01:26;101722.09;;;1.68;79.31
76762;BME280;65705;51.032;13.790;2023-02-15T07:03:51;101722.88;;;1.70;79.50
76762;BME280;65705;51.032;13.790;2023-02-15T07:06:17;101717.69;;;1.70;78.99
76762;BME280;65705;51.032;13.790;2023-02-15T07:08:43;101718.41;;;1.73;79.01
76762;BME280;65705;51.032;13.790;2023-02-15T07:11:09;101718.41;;;1.73;79.13
76762;BME280;65705;51.032;13.790;2023-02-15T07:13:53;101714.19;;;1.71;79.83
76762;BME280;65705;51.032;13.790;2023-02-15T07:16:21;101710.44;;;1.78;79.49
76762;BME280;65705;51.032;13.790;2023-02-15T07:18:47;101708.84;;;1.75;79.98
76762;BME280;65705;51.032;13.790;2023-02-15T07:21:13;101694.81;;;1.81;79.61
76762;BME280;65705;51.032;13.790;2023-02-15T07:23:39;101688.41;;;1.89;79.46
76762;BME280;65705;51.032;13.790;2023-02-15T07:26:06;101701.13;;;1.94;79.80
76762;BME280;65705;51.032;13.790;2023-02-15T07:28:33;101688.97;;;1.96;79.52
76762;BME280;65705;51.032;13.790;2023-02-15T07:31:01;101685.41;;;1.98;79.59
76762;BME280;65705;51.032;13.790;2023-02-15T07:33:30;101686.84;;;2.05;79.38
76762;BME280;65705;51.032;13.790;2023-02-15T07:36:01;101687.41;;;2.12;79.53
76762;BME280;65705;51.032;13.790;2023-02-15T07:38:34;101687.91;;;2.20;79.49
76762;BME280;65705;51.032;13.790;2023-02-15T07:41:01;101686.50;;;2.32;78.85
76762;BME280;65705;51.032;13.790;2023-02-15T07:43:28;101687.16;;;2.37;78.72
76762;BME280;65705;51.032;13.790;2023-02-15T07:45:59;101679.44;;;2.35;78.63
76762;BME280;65705;51.032;13.790;2023-02-15T07:48:25;101678.22;;;2.44;78.71
76762;BME280;65705;51.032;13.790;2023-02-15T07:50:50;101674.47;;;2.49;78.35
76762;BME280;65705;51.032;13.790;2023-02-15T07:53:16;101675.91;;;2.56;78.24
76762;BME280;65705;51.032;13.790;2023-02-15T07:55:42;101668.00;;;2.59;78.21
76762;BME280;65705;51.032;13.790;2023-02-15T07:58:08;101666.81;;;2.66;77.93
76762;BME280;65705;51.032;13.790;2023-02-15T08:00:34;101658.59;;;2.75;77.51
76762;BME280;65705;51.032;13.790;2023-02-15T08:03:23;101666.38;;;2.75;77.45
76762;BME280;65705;51.032;13.790;2023-02-15T08:05:49;101653.88;;;2.83;77.41
76762;BME280;65705;51.032;13.790;2023-02-15T08:08:15;101652.91;;;2.86;77.16
76762;BME280;65705;51.032;13.790;2023-02-15T08:11:00;101648.13;;;2.95;76.97
76762;BME280;65705;51.032;13.790;2023-02-15T08:13:46;101648.13;;;2.95;76.61
76762;BME280;65705;51.032;13.790;2023-02-15T08:19:02;101646.41;;;3.13;76.44
76762;BME280;65705;51.032;13.790;2023-02-15T08:21:29;101647.50;;;3.26;76.01
76762;BME280;65705;51.032;13.790;2023-02-15T08:23:55;101642.09;;;3.31;75.65
76762;BME280;65705;51.032;13.790;2023-02-15T08:26:22;101638.50;;;3.33;75.63
76762;BME280;65705;51.032;13.790;2023-02-15T08:28:48;101642.59;;;3.37;75.41
76762;BME280;65705;51.032;13.790;2023-02-15T08:31:14;101635.91;;;3.33;75.30
76762;BME280;65705;51.032;13.790;2023-02-15T08:33:41;101634.53;;;3.43;75.07
76762;BME280;65705;51.032;13.790;2023-02-15T08:36:11;101633.38;;;3.49;74.92
76762;BME280;65705;51.032;13.790;2023-02-15T08:38:37;101622.06;;;3.50;75.13
76762;BME280;65705;51.032;13.790;2023-02-15T08:41:29;101621.78;;;3.56;74.50
76762;BME280;65705;51.032;13.790;2023-02-15T08:43:58;101622.75;;;3.53;74.63
76762;BME280;65705;51.032;13.790;2023-02-15T08:46:26;101628.34;;;3.63;74.72
76762;BME280;65705;51.032;13.790;2023-02-15T08:48:54;101620.72;;;3.60;74.84
76762;BME280;65705;51.032;13.790;2023-02-15T08:51:40;101623.22;;;3.61;74.74
76762;BME280;65705;51.032;13.790;2023-02-15T08:54:08;101630.03;;;3.64;74.83
76762;BME280;65705;51.032;13.790;2023-02-15T08:56:39;101622.94;;;3.67;74.61
76762;BME280;65705;51.032;13.790;2023-02-15T08:59:06;101625.66;;;3.81;74.39
76762;BME280;65705;51.032;13.790;2023-02-15T09:01:34;101623.34;;;3.92;74.05
76762;BME280;65705;51.032;13.790;2023-02-15T09:04:02;101620.09;;;4.04;73.80
76762;BME280;65705;51.032;13.790;2023-02-15T09:06:30;101618.84;;;3.96;73.87
76762;BME280;65705;51.032;13.790;2023-02-15T09:08:56;101626.38;;;4.00;74.51
76762;BME280;65705;51.032;13.790;2023-02-15T09:11:27;101625.91;;;4.09;73.95
76762;BME280;65705;51.032;13.790;2023-02-15T09:14:01;101618.34;;;4.05;73.78
76762;BME280;65705;51.032;13.790;2023-02-15T09:16:30;101624.81;;;4.13;73.75
76762;BME280;65705;51.032;13.790;2023-02-15T09:18:56;101618.59;;;4.16;73.83
76762;BME280;65705;51.032;13.790;2023-02-15T09:21:31;101621.88;;;4.19;73.30
76762;BME280;65705;51.032;13.790;2023-02-15T09:23:59;101619.06;;;4.24;73.10
76762;BME280;65705;51.032;13.790;2023-02-15T09:26:26;101618.28;;;4.22;73.31
76762;BME280;65705;51.032;13.790;2023-02-15T09:28:53;101613.75;;;4.25;73.14
76762;BME280;65705;51.032;13.790;2023-02-15T09:31:26;101613.59;;;4.28;72.82
76762;BME280;65705;51.032;13.790;2023-02-15T09:33:52;101608.44;;;4.44;72.46
76762;BME280;65705;51.032;13.790;2023-02-15T09:36:24;101610.94;;;4.46;72.48
76762;BME280;65705;51.032;13.790;2023-02-15T09:41:50;101610.34;;;4.56;72.35
76762;BME280;65705;51.032;13.790;2023-02-15T09:56:06;101610.19;;;4.75;71.84
76762;BME280;65705;51.032;13.790;2023-02-15T09:58:59;101610.84;;;4.78;71.74
76762;BME280;65705;51.032;13.790;2023-02-15T10:10:02;101606.47;;;4.94;72.04
76762;BME280;65705;51.032;13.790;2023-02-15T10:19:03;101588.13;;;5.11;71.04
76762;BME280;65705;51.032;13.790;2023-02-15T10:21:43;101579.22;;;5.15;70.78
76762;BME280;65705;51.032;13.790;2023-02-15T10:26:50;101571.13;;;5.20;71.07
76762;BME280;65705;51.032;13.790;2023-02-15T10:29:45;101575.16;;;5.25;70.74
76762;BME280;65705;51.032;13.790;2023-02-15T10:32:25;101578.16;;;5.33;70.34
76762;BME280;65705;51.032;13.790;2023-02-15T10:37:34;101576.31;;;5.35;70.04
76762;BME280;65705;51.032;13.790;2023-02-15T10:51:16;101556.03;;;5.84;70.23
76762;BME280;65705;51.032;13.790;2023-02-15T10:54:01;101549.53;;;5.91;69.56
76762;BME280;65705;51.032;13.790;2023-02-15T11:02:37;101539.06;;;6.05;68.64
76762;BME280;65705;51.032;13.790;2023-02-15T11:07:57;101530.13;;;6.23;67.72
76762;BME280;65705;51.032;13.790;2023-02-15T11:12:56;101520.78;;;6.33;67.91
76762;BME280;65705;51.032;13.790;2023-02-15T11:18:00;101523.91;;;6.38;66.88
76762;BME280;65705;51.032;13.790;2023-02-15T11:20:42;101517.97;;;6.36;66.84
76762;BME280;65705;51.032;13.790;2023-02-15T11:23:15;101518.25;;;6.32;66.54
76762;BME280;65705;51.032;13.790;2023-02-15T11:25:45;101506.44;;;6.26;66.82
76762;BME280;65705;51.032;13.790;2023-02-15T11:28:24;101515.22;;;6.25;66.67
76762;BME280;65705;51.032;13.790;2023-02-15T11:30:55;101519.78;;;6.22;67.05
76762;BME280;65705;51.032;13.790;2023-02-15T11:33:30;101515.13;;;6.27;67.07
76762;BME280;65705;51.032;13.790;2023-02-15T11:38:34;101507.09;;;6.30;66.67
76762;BME280;65705;51.032;13.790;2023-02-15T11:41:18;101512.41;;;6.28;66.77
76762;BME280;65705;51.032;13.790;2023-02-15T11:43:58;101509.06;;;6.26;66.78
76762;BME280;65705;51.032;13.790;2023-02-15T11:46:26;101512.03;;;6.34;66.60
76762;BME280;65705;51.032;13.790;2023-02-15T11:48:52;101498.63;;;6.26;66.10
76762;BME280;65705;51.032;13.790;2023-02-15T11:51:20;101503.47;;;6.32;66.48
76762;BME280;65705;51.032;13.790;2023-02-15T11:53:47;101506.16;;;6.31;66.52
76762;BME280;65705;51.032;13.790;2023-02-15T11:56:24;101496.47;;;6.33;66.49
76762;BME280;65705;51.032;13.790;2023-02-15T11:59:04;101501.28;;;6.39;66.59
76762;BME280;65705;51.032;13.790;2023-02-15T12:01:42;101499.53;;;6.39;66.06
76762;BME280;65705;51.032;13.790;2023-02-15T12:07:24;101478.38;;;6.44;66.10
76762;BME280;65705;51.032;13.790;2023-02-15T12:10:04;101472.66;;;6.52;65.68
76762;BME280;65705;51.032;13.790;2023-02-15T12:12:37;101475.69;;;6.58;65.02
76762;BME280;65705;51.032;13.790;2023-02-15T12:15:06;101474.88;;;6.58;64.92
76762;BME280;65705;51.032;13.790;2023-02-15T12:17:54;101477.88;;;6.52;65.31
76762;BME280;65705;51.032;13.790;2023-02-15T12:20:21;101483.19;;;6.50;65.35
76762;BME280;65705;51.032;13.790;2023-02-15T12:23:12;101481.72;;;6.46;65.24
76762;BME280;65705;51.032;13.790;2023-02-15T12:25:43;101479.53;;;6.53;65.22
76762;BME280;65705;51.032;13.790;2023-02-15T12:28:33;101467.34;;;6.53;64.98
76762;BME280;65705;51.032;13.790;2023-02-15T12:31:02;101457.34;;;6.60;64.92
76762;BME280;65705;51.032;13.790;2023-02-15T12:33:39;101457.78;;;6.66;64.73
76762;BME280;65705;51.032;13.790;2023-02-15T12:36:21;101450.56;;;6.57;64.80
76762;BME280;65705;51.032;13.790;2023-02-15T12:39:27;101449.97;;;6.66;64.49
76762;BME280;65705;51.032;13.790;2023-02-15T12:44:23;101435.31;;;6.64;64.43
76762;BME280;65705;51.032;13.790;2023-02-15T12:47:04;101437.66;;;6.68;64.34
76762;BME280;65705;51.032;13.790;2023-02-15T12:49:35;101436.06;;;6.66;64.09
76762;BME280;65705;51.032;13.790;2023-02-15T12:52:03;101430.75;;;6.80;63.82
76762;BME280;65705;51.032;13.790;2023-02-15T12:54:36;101431.38;;;6.71;63.58
76762;BME280;65705;51.032;13.790;2023-02-15T12:59:58;101426.28;;;6.82;63.31
76762;BME280;65705;51.032;13.790;2023-02-15T13:02:34;101421.69;;;6.85;63.28
76762;BME280;65705;51.032;13.790;2023-02-15T13:08:08;101426.50;;;6.91;63.49
76762;BME280;65705;51.032;13.790;2023-02-15T13:10:39;101433.63;;;7.02;63.09
76762;BME280;65705;51.032;13.790;2023-02-15T13:13:09;101433.50;;;7.03;63.05
76762;BME280;65705;51.032;13.790;2023-02-15T13:15:38;101426.41;;;7.05;63.43
76762;BME280;65705;51.032;13.790;2023-02-15T13:18:12;101424.13;;;7.13;63.30
76762;BME280;65705;51.032;13.790;2023-02-15T13:20:42;101424.31;;;7.10;63.12
76762;BME280;65705;51.032;13.790;2023-02-15T13:23:25;101418.06;;;7.13;62.83
76762;BME280;65705;51.032;13.790;2023-02-15T13:25:55;101418.16;;;7.24;62.16
76762;BME280;65705;51.032;13.790;2023-02-15T13:28:26;101422.78;;;7.20;61.88
76762;BME280;65705;51.032;13.790;2023-02-15T13:30:56;101425.38;;;7.08;62.33
76762;BME280;65705;51.032;13.790;2023-02-15T13:44:25;101410.63;;;7.07;62.25
76762;BME280;65705;51.032;13.790;2023-02-15T13:52:42;101426.09;;;7.10;61.82
76762;BME280;65705;51.032;13.790;2023-02-15T14:20:35;101429.34;;;7.13;61.83
76762;BME280;65705;51.032;13.790;2023-02-15T14:26:37;101419.22;;;7.09;61.78
76762;BME280;65705;51.032;13.790;2023-02-15T14:31:59;101412.00;;;7.00;62.08
76762;BME280;65705;51.032;13.790;2023-02-15T14:37:18;101408.03;;;7.07;61.66
76762;BME280;65705;51.032;13.790;2023-02-15T14:42:49;101416.38;;;6.99;61.81
76762;BME280;65705;51.032;13.790;2023-02-15T14:47:57;101418.97;;;6.99;62.48
76762;BME280;65705;51.032;13.790;2023-02-15T15:01:27;101420.84;;;6.85;62.25
76762;BME280;65705;51.032;13.790;2023-02-15T15:03:58;101422.84;;;6.81;62.67
76762;BME280;65705;51.032;13.790;2023-02-15T15:06:37;101423.88;;;6.66;63.01
76762;BME280;65705;51.032;13.790;2023-02-15T15:09:20;101424.91;;;6.76;62.65
76762;BME280;65705;51.032;13.790;2023-02-15T15:11:50;101426.16;;;6.71;62.78
76762;BME280;65705;51.032;13.790;2023-02-15T15:17:02;101417.69;;;6.67;63.14
76762;BME280;65705;51.032;13.790;2023-02-15T15:24:49;101427.16;;;6.43;63.68
76762;BME280;65705;51.032;13.790;2023-02-15T15:27:49;101425.03;;;6.35;63.83
76762;BME280;65705;51.032;13.790;2023-02-15T15:49:15;101404.44;;;5.92;65.20
76762;BME280;65705;51.032;13.790;2023-02-15T15:51:42;101403.25;;;5.83;65.49
76762;BME280;65705;51.032;13.790;2023-02-15T15:54:15;101411.91;;;5.70;65.71
76762;BME280;65705;51.032;13.790;2023-02-15T15:56:45;101408.09;;;5.61;65.82
76762;BME280;65705;51.032;13.790;2023-02-15T15:59:19;101400.03;;;5.52;66.07
76762;BME280;65705;51.032;13.790;2023-02-15T16:01:47;101402.91;;;5.47;66.25
76762;BME280;65705;51.032;13.790;2023-02-15T16:06:50;101398.94;;;5.27;67.07
76762;BME280;65705;51.032;13.790;2023-02-15T16:09:20;101399.31;;;5.21;67.03
76762;BME280;65705;51.032;13.790;2023-02-15T16:11:54;101393.06;;;5.10;67.12
76762;BME280;65705;51.032;13.790;2023-02-15T16:16:54;101398.53;;;4.91;67.94
76762;BME280;65705;51.032;13.790;2023-02-15T16:19:28;101405.53;;;4.91;67.99
76762;BME280;65705;51.032;13.790;2023-02-15T16:21:58;101398.53;;;4.77;68.35
76762;BME280;65705;51.032;13.790;2023-02-15T16:30:26;101404.56;;;4.48;69.26
76762;BME280;65705;51.032;13.790;2023-02-15T16:32:54;101404.66;;;4.47;69.10
76762;BME280;65705;51.032;13.790;2023-02-15T16:35:21;101400.75;;;4.40;69.45
76762;BME280;65705;51.032;13.790;2023-02-15T16:37:47;101405.47;;;4.33;69.65
76762;BME280;65705;51.032;13.790;2023-02-15T16:40:27;101400.63;;;4.27;69.76